KSNS/SNS METAR and TAF weather

Enter ICAO airport designator
Station Type Date Time Source
KSNS METAR 2020/11/27 02:53 UTC NOAA

KSNS 270253Z AUTO 00000KT 10SM CLR 11/M01 A3017 RMK AO2 SLP225 T01111011 51009


Station Type Date Time Source
KSNS Decoded METAR 2020/11/27 02:53 UTC NOAA

SALINAS MUNICIPAL AIRPORT, CA, United States (KSNS) 36-40N 121-36W 30M
Nov 26, 2020 - 09:53 PM EST / 2020.11.27 0253 UTC
Wind: Calm:0
Visibility: 10 mile(s):0
Sky conditions: clear
Temperature: 52.0 F (11.1 C)
Dew Point: 30.0 F (-1.1 C)
Relative Humidity: 42%
Pressure (altimeter): 30.17 in. Hg (1021 hPa)
Pressure tendency: 0.03 inches (0.9 hPa) higher than three hours ago
ob: KSNS 270253Z AUTO 00000KT 10SM CLR 11/M01 A3017 RMK AO2 SLP225 T01111011 51009
cycle: 3

Station Type Date Time Source
KSNS TAF 2020/11/26 22:54 UTC NOAA

KSNS 262205Z 2622/2718 07009KT P6SM SKC
FM270300 VRB04KT P6SM SKC
FM271000 11008KT P6SM SKC

Example: see airport list